Terminal Aerodrome Forecast
Issued by NWS

Home | Current Version | Previous Version | Text Only | Print | Product List | Glossary On
Versions: 1 2 3 4 5 6 7 8 9 10 11 12 13 14 15
000
FTAK31 PAJN 180539
TAFAPG
TAF
PAPG 180539Z 1806/1906 VRB05KT 6SM -RA OVC030
     FM181000 VRB04KT 6SM BR VCSH OVC040
     FM181400 VRB03KT P6SM VCSH OVC030
     FM182000 VRB03KT P6SM BKN040
     FM190300 VRB03KT 3SM BR BKN005
      AMD LTD TO CLD VIS AND WIND 1806/1815=

USA.gov is the U.S. government's official web portal to all federal, state and local government web resources and services.